Aérodrome :







RETROUVEZ-NOUS SUR...

 
LOGIN :

S'inscrire | Disclaimer

   EN    FR    IT 

 









Légende :    VFR   VFR Marginal   IFR   IFR Intensif   IFR Très Intensif
Visi : 
Plafond : 
>= 8 km
>= 3000ft
5 à 8 km
1000 à 3000 ft
1500m à 5 km
500 à 1000 ft
800 à 1500m
200 à 500 ft
< 800m
< 200 ft
Symboles :   Orages  Brouillard  Fortes neiges  Fortes précipitations  Vent > 20 kt






- Altitude de l'aérodrome : 59 ft
- Code IATA : PBM


SMJP - J.A. Pengel Int.

DERNIER METAR :
  • 221700Z 08006KT 9999 VCSH FEW018CB SCT030 34/23 Q1010 NOSIG

METARs EXPIRÉS :
  • 221600Z 12006KT 9999 FEW020CB BKN035 33/24 Q1011 NOSIG
  • 221500Z 08007KT 9999 BKN030 32/25 Q1012 NOSIG

TAF TAF SMJP
Valide du 22 à 12h jusqu'au 23 à 12h UTC


221000Z 2212/2312 10008KT 9999 SCT020 TX35/2218Z TN23/2309Z
PROB30
TEMPO 2217/2221 4000 SHRA FEW015CB SCT018
BECMG 2222/2300 08005KT CAVOK
PROB30
TEMPO 2309/2310 00000KT 4000 BR SCT002
FIR SMPM / Amérique du Sud



MET'MAP, la Météo Aéronautique d'un coup d'oeil ! - Copyright ORBIFLY Décembre 2007 - Disclaimer

ORBIFLY MET'MAP TEAM :

Programmation & Développement : Alexandra Zaïnal
Sur une idée originale de : Baudouin d'Aumeries
Assistance à la programmation : Marc-Olivier Méhu
Soutien technique & logistique : Manuel Goepfert

Contact : metmap@orbifly.com




SOURCES & CREDITS :

   NOAA